»·PEaware :: SWA422 KPDX-KSEA

SWA422 :: KPDX-KSEA

FLIGHT INFORMATION

Flight Status: Arrived
Operator:
Southwest Airlines
More flights by this operator :: More flights under this callsign
Pilot: Kevin M. (7)
Aircraft: BOEING 737-800
(B738)
More flights by this aircraft type
Origin: KPDX Portland Intl
United States
Destination: KSEA Seattle-Tacoma Intl
United States
More flights between these airports :: More routes between these airports
Route: COUGA KRIEG HAWKZ6
File this flight plan on PilotEdge
Remarks:
Altitude:
(Current/Filed)
19,000ft
Speed:
(Current/Filed)
459kts
Departed: 09-Jan-18 02:30 PM
Arrived: 09-Jan-18 03:10 PM
Distance/Time
Traveled:
112nm/0:40
Distance/Time
To Go:
Arrived

Flight Plot

Page will automatically refresh every two minutes.

Flight plan parsing failed; only flown route is shown


Map Options




Map Legend


Flown Route
Filed Route
Departure Airport
Arrival Airport
Navaid (VOR, NDB)
Fix

Horizontal Profiles

Position Reports

Time Latitude Longitude Heading Altitude Ground
Speed
09-Jan-18 14:13 45.589867 -122.600067 84 37ft 0kts
09-Jan-18 14:14 45.589867 -122.600067 84 37ft 0kts
09-Jan-18 14:15 45.589867 -122.600067 84 37ft 0kts
09-Jan-18 14:16 45.589867 -122.600067 84 37ft 0kts
09-Jan-18 14:17 45.589867 -122.600067 84 37ft 0kts
09-Jan-18 14:18 45.589867 -122.600067 84 37ft 0kts
09-Jan-18 14:19 45.589867 -122.600067 84 37ft 0kts
09-Jan-18 14:20 45.589867 -122.600067 84 37ft 0kts
09-Jan-18 14:21 45.589867 -122.600067 84 37ft 0kts
09-Jan-18 14:22 45.589867 -122.600067 84 37ft 0kts
09-Jan-18 14:23 45.589846 -122.600375 84 37ft 2kts
09-Jan-18 14:24 45.589592 -122.601000 15 37ft 2kts
09-Jan-18 14:25 45.589162 -122.600725 295 37ft 1kts
09-Jan-18 14:26 45.589151 -122.600694 297 37ft 0kts
09-Jan-18 14:27 45.589151 -122.600694 297 37ft 0kts
09-Jan-18 14:28 45.589151 -122.600694 297 37ft 0kts
09-Jan-18 14:29 45.589151 -122.600694 297 37ft 0kts
09-Jan-18 14:30 45.589151 -122.600694 297 37ft 0kts
09-Jan-18 14:31 45.589151 -122.600694 297 37ft 0kts
09-Jan-18 14:32 45.589423 -122.601392 303 37ft 11kts
09-Jan-18 14:33 45.592534 -122.600198 45 37ft 16kts
09-Jan-18 14:34 45.594074 -122.598037 43 37ft 0kts
09-Jan-18 14:35 45.594799 -122.595620 118 37ft 5kts
09-Jan-18 14:36 45.593976 -122.593475 118 37ft 44kts
09-Jan-18 14:37 45.574541 -122.543222 118 1139ft 193kts
09-Jan-18 14:38 45.547743 -122.466977 117 3004ft 258kts
09-Jan-18 14:39 45.514823 -122.371115 117 6486ft 285kts
09-Jan-18 14:40 45.494483 -122.264324 66 9751ft 313kts
09-Jan-18 14:41 45.565047 -122.239043 325 12310ft 313kts
09-Jan-18 14:42 45.637845 -122.298720 324 15485ft 328kts
09-Jan-18 14:43 45.714135 -122.361823 324 18468ft 343kts
09-Jan-18 14:44 45.798642 -122.432109 325 18996ft 387kts
09-Jan-18 14:45 45.888283 -122.506706 325 18986ft 385kts
09-Jan-18 14:46 45.979241 -122.582722 325 18819ft 384kts
09-Jan-18 14:47 46.069112 -122.658108 324 18825ft 384kts
09-Jan-18 14:48 46.158664 -122.692056 348 18827ft 399kts
09-Jan-18 14:49 46.266322 -122.711790 346 18827ft 397kts
09-Jan-18 14:50 46.374560 -122.724974 353 18829ft 402kts
09-Jan-18 14:51 46.483838 -122.728177 353 18820ft 402kts
09-Jan-18 14:52 46.592943 -122.732066 353 18809ft 402kts
09-Jan-18 14:53 46.701847 -122.735920 353 18792ft 385kts
09-Jan-18 14:54 46.799354 -122.723772 26 18011ft 376kts
09-Jan-18 14:55 46.877542 -122.631426 34 16386ft 368kts
09-Jan-18 14:56 46.957097 -122.553182 12 14714ft 337kts
09-Jan-18 14:57 47.039749 -122.517379 13 13339ft 313kts
09-Jan-18 14:58 47.112688 -122.493366 2 12173ft 296kts
09-Jan-18 14:59 47.185032 -122.480871 3 11050ft 293kts
09-Jan-18 15:00 47.259694 -122.469366 2 9874ft 266kts
09-Jan-18 15:01 47.318987 -122.460385 2 8957ft 259kts
09-Jan-18 15:02 47.389131 -122.454875 357 7876ft 253kts
09-Jan-18 15:03 47.458079 -122.455292 358 6801ft 246kts
09-Jan-18 15:04 47.535025 -122.457334 358 5984ft 220kts
09-Jan-18 15:05 47.585800 -122.457347 358 5999ft 222kts
09-Jan-18 15:06 47.643974 -122.457293 358 5997ft 222kts
09-Jan-18 15:07 47.691692 -122.421175 74 5554ft 225kts
09-Jan-18 15:08 47.690611 -122.339176 96 4611ft 218kts
09-Jan-18 15:09 47.685024 -122.252651 112 3982ft 194kts
09-Jan-18 15:10 47.642317 -122.237129 225 3010ft 170kts
09-Jan-18 15:11 47.612531 -122.286335 206 2124ft 159kts
09-Jan-18 15:12 47.573779 -122.306566 179 2172ft 159kts
09-Jan-18 15:13 47.531723 -122.307213 178 1765ft 148kts
09-Jan-18 15:14 47.491924 -122.307544 179 1028ft 145kts
09-Jan-18 15:15 47.454988 -122.307796 180 441ft 128kts
09-Jan-18 15:16 47.439086 -122.307955 178 441ft 37kts
09-Jan-18 15:17 47.438948 -122.304039 136 441ft 0kts
09-Jan-18 15:18 47.438948 -122.304039 136 441ft 0kts
09-Jan-18 15:19 47.438948 -122.304039 136 441ft 0kts
09-Jan-18 15:20 47.438948 -122.304039 136 441ft 0kts
09-Jan-18 15:21 47.438948 -122.304039 136 441ft 0kts

Navigation Log

Ident Type
Flight plan parsing failed, navigation log unavailable